createdAt,value
2018-10-21T00:01:40.079Z,30.43
2018-10-21T00:04:08.990Z,32.00
2018-10-21T00:06:37.996Z,32.57
2018-10-21T00:09:09.301Z,32.73
2018-10-21T00:11:38.283Z,31.17
2018-10-21T00:14:07.275Z,29.57
2018-10-21T00:16:36.186Z,29.57
2018-10-21T00:19:05.390Z,29.93
2018-10-21T00:21:34.351Z,30.23
2018-10-21T00:24:03.353Z,29.57
2018-10-21T00:26:32.302Z,30.57
2018-10-21T00:29:01.259Z,30.90
2018-10-21T00:31:30.194Z,30.17
2018-10-21T00:33:59.095Z,31.03
2018-10-21T00:36:27.988Z,38.27
2018-10-21T00:38:56.941Z,46.17
2018-10-21T00:41:25.853Z,43.37
2018-10-21T00:43:54.732Z,39.97
2018-10-21T00:46:23.663Z,37.33
2018-10-21T00:48:52.594Z,34.57
2018-10-21T00:51:21.492Z,35.13
2018-10-21T00:53:50.479Z,34.10
2018-10-21T00:56:19.379Z,32.03
2018-10-21T00:58:48.247Z,32.37
2018-10-21T01:01:17.179Z,32.37
2018-10-21T01:03:46.121Z,32.37
2018-10-21T01:06:15.487Z,30.93
2018-10-21T01:08:44.388Z,31.53
2018-10-21T01:11:13.316Z,32.07
2018-10-21T01:13:42.236Z,32.20
2018-10-21T01:16:11.721Z,30.17
2018-10-21T01:18:40.662Z,30.17
2018-10-21T01:21:09.660Z,30.03
2018-10-21T01:23:38.612Z,30.17
2018-10-21T01:26:07.611Z,29.60
2018-10-21T01:28:36.539Z,30.90
2018-10-21T01:31:05.660Z,30.37
2018-10-21T01:33:34.634Z,32.67
2018-10-21T01:36:03.578Z,31.20
2018-10-21T01:38:32.511Z,29.13
2018-10-21T01:41:01.925Z,28.73
2018-10-21T01:43:32.218Z,29.20
2018-10-21T01:46:01.981Z,29.47
2018-10-21T01:48:31.989Z,30.40
2018-10-21T01:51:01.271Z,29.80
2018-10-21T01:53:30.153Z,28.63
2018-10-21T01:56:01.884Z,29.73
2018-10-21T01:58:30.828Z,31.60
2018-10-21T02:01:00.042Z,30.50
2018-10-21T02:03:28.963Z,26.07
2018-10-21T02:05:57.921Z,26.47
2018-10-21T02:11:20.073Z,30.80
2018-10-21T02:13:48.965Z,40.93
2018-10-21T02:16:17.867Z,34.33
2018-10-21T02:18:46.786Z,31.70
2018-10-21T02:21:15.780Z,27.87
2018-10-21T02:23:44.696Z,28.27
2018-10-21T02:26:13.605Z,28.83
2018-10-21T02:28:42.562Z,29.93
2018-10-21T02:31:11.486Z,28.33
2018-10-21T02:33:40.649Z,30.33
2018-10-21T02:36:09.381Z,29.57
2018-10-21T02:38:38.280Z,29.03
2018-10-21T02:41:34.573Z,28.33
2018-10-21T02:44:04.381Z,27.50
2018-10-21T02:46:33.655Z,30.37
2018-10-21T02:49:03.442Z,31.83
2018-10-21T02:51:32.389Z,32.13
2018-10-21T02:54:01.393Z,32.23
2018-10-21T02:56:30.392Z,32.53
2018-10-21T02:58:59.364Z,33.47
2018-10-21T03:01:28.296Z,29.37
2018-10-21T03:03:57.234Z,30.43
2018-10-21T03:06:26.241Z,30.23
2018-10-21T03:08:55.267Z,31.00
2018-10-21T03:11:24.265Z,32.63
2018-10-21T03:13:53.170Z,32.30
2018-10-21T03:16:22.257Z,33.17
2018-10-21T03:18:51.232Z,33.93
2018-10-21T03:21:20.334Z,36.37
2018-10-21T03:23:49.137Z,35.03
2018-10-21T03:26:18.037Z,35.57
2018-10-21T03:28:47.022Z,30.27
2018-10-21T03:31:15.960Z,30.63
2018-10-21T03:33:44.956Z,30.87
2018-10-21T03:36:13.802Z,30.23
2018-10-21T03:38:42.802Z,29.70
2018-10-21T03:41:11.716Z,28.50
2018-10-21T03:43:40.912Z,28.60
2018-10-21T03:46:11.404Z,25.80
2018-10-21T03:48:40.367Z,25.13
2018-10-21T03:51:09.245Z,25.13
2018-10-21T03:53:38.171Z,26.50
2018-10-21T03:56:07.157Z,24.70
2018-10-21T03:58:36.112Z,24.90
2018-10-21T04:01:05.229Z,23.40
2018-10-21T04:03:34.263Z,24.27
2018-10-21T04:06:03.293Z,25.27
2018-10-21T04:08:32.256Z,24.27
2018-10-21T04:11:01.204Z,23.00
2018-10-21T04:13:30.233Z,26.07
2018-10-21T04:15:59.190Z,25.60
2018-10-21T04:18:28.137Z,25.77
2018-10-21T04:20:57.050Z,25.97
2018-10-21T04:23:25.988Z,25.03
2018-10-21T04:25:54.953Z,26.20
2018-10-21T04:28:23.928Z,26.10
2018-10-21T04:30:52.923Z,36.17
2018-10-21T04:33:52.049Z,33.10
2018-10-21T04:36:22.742Z,33.53
2018-10-21T04:40:02.790Z,35.93
2018-10-21T04:42:31.837Z,39.30
2018-10-21T04:45:01.552Z,41.17
2018-10-21T04:47:30.885Z,43.50
2018-10-21T04:50:00.435Z,44.20
2018-10-21T04:52:30.389Z,45.13
2018-10-21T04:55:04.537Z,44.93
2018-10-21T04:57:33.566Z,43.13
2018-10-21T05:00:02.894Z,41.33
2018-10-21T05:02:32.436Z,39.10
2018-10-21T05:05:01.357Z,36.83
2018-10-21T05:07:30.295Z,38.63
2018-10-21T05:09:59.275Z,37.03
2018-10-21T05:12:28.218Z,35.50
2018-10-21T05:14:57.167Z,37.47
2018-10-21T05:17:26.166Z,34.03
2018-10-21T05:19:55.148Z,36.87
2018-10-21T05:22:24.065Z,39.13
2018-10-21T05:24:53.393Z,37.23
2018-10-21T05:27:22.288Z,36.87
2018-10-21T05:29:51.175Z,36.23
2018-10-21T05:32:20.117Z,36.13
2018-10-21T05:34:49.021Z,37.27
2018-10-21T05:37:17.994Z,40.33
2018-10-21T05:39:46.891Z,43.43
2018-10-21T05:42:15.836Z,42.90
2018-10-21T05:44:44.824Z,43.70
2018-10-21T05:47:13.737Z,41.27
2018-10-21T05:49:42.669Z,42.63
2018-10-21T05:52:11.649Z,46.10
2018-10-21T05:54:41.373Z,44.47
2018-10-21T05:57:10.380Z,42.07
2018-10-21T05:59:39.401Z,43.53
2018-10-21T06:02:08.307Z,42.97
2018-10-21T06:04:37.350Z,41.90
2018-10-21T06:07:06.410Z,42.27
2018-10-21T06:09:35.319Z,42.37
2018-10-21T06:12:04.266Z,43.53
2018-10-21T06:14:33.196Z,44.27
2018-10-21T06:17:06.562Z,45.37
2018-10-21T06:19:40.715Z,46.93
2018-10-21T06:22:09.689Z,48.90
2018-10-21T06:24:38.679Z,55.27
2018-10-21T06:27:07.577Z,58.13
2018-10-21T06:29:36.519Z,57.53
2018-10-21T06:32:05.508Z,53.73
2018-10-21T06:34:34.475Z,56.67
2018-10-21T06:37:03.447Z,51.20
2018-10-21T06:39:32.340Z,52.20
2018-10-21T06:42:01.293Z,48.77
2018-10-21T06:44:30.205Z,50.50
2018-10-21T06:46:59.163Z,49.87
2018-10-21T06:49:28.113Z,48.80
2018-10-21T06:51:57.042Z,46.13
2018-10-21T06:54:25.977Z,44.93
2018-10-21T06:56:54.930Z,44.93
2018-10-21T06:59:23.823Z,43.20
2018-10-21T07:01:53.470Z,41.73
2018-10-21T07:04:22.418Z,41.20
2018-10-21T07:06:51.303Z,36.37
2018-10-21T07:09:20.188Z,35.87
2018-10-21T07:11:49.140Z,40.93
2018-10-21T07:14:18.184Z,43.53
2018-10-21T07:16:47.297Z,39.93
2018-10-21T07:19:16.155Z,38.97
2018-10-21T07:21:45.190Z,41.07
2018-10-21T07:24:14.161Z,32.57
2018-10-21T07:26:43.126Z,34.73
2018-10-21T07:29:12.189Z,34.17
2018-10-21T07:31:41.193Z,24.27
2018-10-21T07:34:10.209Z,23.73
2018-10-21T07:36:39.103Z,23.37
2018-10-21T07:39:09.739Z,23.53
2018-10-21T07:41:38.749Z,25.53
2018-10-21T07:44:07.768Z,33.00
2018-10-21T07:46:36.722Z,30.47
2018-10-21T07:49:05.653Z,30.17
2018-10-21T07:51:34.624Z,28.97
2018-10-21T07:54:03.533Z,28.53
2018-10-21T07:56:32.496Z,29.23
2018-10-21T07:59:01.952Z,30.30
2018-10-21T08:01:31.041Z,35.97
2018-10-21T08:03:59.965Z,38.63
2018-10-21T08:06:40.032Z,38.53
2018-10-21T08:09:10.600Z,40.47
2018-10-21T08:11:39.507Z,39.00
2018-10-21T08:14:08.429Z,38.93
2018-10-21T08:16:39.742Z,30.57
2018-10-21T08:19:08.638Z,31.50
2018-10-21T08:21:38.228Z,32.03
2018-10-21T08:24:07.761Z,29.23
2018-10-21T08:26:36.770Z,24.90
2018-10-21T08:29:06.021Z,26.30
2018-10-21T08:31:35.024Z,26.57
2018-10-21T08:34:04.031Z,24.83
2018-10-21T08:36:33.024Z,22.17
2018-10-21T08:39:01.917Z,20.47
2018-10-21T08:41:31.247Z,22.03
2018-10-21T08:44:00.195Z,21.27
2018-10-21T08:46:29.161Z,20.83
2018-10-21T08:48:58.082Z,20.43
2018-10-21T08:51:27.012Z,20.50
2018-10-21T08:53:56.487Z,16.47
2018-10-21T08:56:25.427Z,15.27
2018-10-21T08:58:54.938Z,15.97
2018-10-21T09:01:23.990Z,13.90
2018-10-21T09:03:52.908Z,14.00
2018-10-21T09:06:21.923Z,14.30
2018-10-21T09:08:50.836Z,13.50
2018-10-21T09:11:19.777Z,15.07
2018-10-21T09:13:49.235Z,16.50
2018-10-21T09:16:18.225Z,22.13
2018-10-21T09:18:47.108Z,18.27
2018-10-21T09:21:17.650Z,16.03
2018-10-21T09:23:46.602Z,15.43
2018-10-21T09:26:15.479Z,15.83
2018-10-21T09:28:44.913Z,16.93
2018-10-21T09:31:13.956Z,19.07
2018-10-21T09:33:42.725Z,18.63
2018-10-21T09:36:11.709Z,19.30
2018-10-21T09:38:40.593Z,17.20
2018-10-21T09:41:09.496Z,13.40
2018-10-21T09:43:38.424Z,10.40
2018-10-21T09:46:07.343Z,12.13
2018-10-21T09:48:36.251Z,11.87
2018-10-21T09:51:05.293Z,9.43
2018-10-21T09:53:34.152Z,7.13
2018-10-21T09:56:03.036Z,7.30
2018-10-21T09:58:32.012Z,7.33
2018-10-21T10:01:05.989Z,7.63
2018-10-21T10:03:34.935Z,7.00
2018-10-21T10:06:03.812Z,6.87
2018-10-21T10:08:32.710Z,6.07
2018-10-21T10:11:01.688Z,6.47
2018-10-21T10:13:30.547Z,6.87
2018-10-21T10:15:59.452Z,5.87
2018-10-21T10:18:28.322Z,6.60
2018-10-21T10:20:57.211Z,6.53
2018-10-21T10:23:26.109Z,6.50
2018-10-21T10:25:55.024Z,8.80
2018-10-21T10:28:23.931Z,7.97
2018-10-21T10:30:52.771Z,7.17
2018-10-21T10:33:21.641Z,8.10
2018-10-21T10:35:50.539Z,7.10
2018-10-21T10:38:19.418Z,8.60
2018-10-21T10:40:48.263Z,7.73
2018-10-21T10:43:17.262Z,7.47
2018-10-21T10:45:46.108Z,6.63
2018-10-21T10:48:14.967Z,6.33
2018-10-21T10:50:43.898Z,6.20
2018-10-21T10:53:12.856Z,5.53
2018-10-21T10:55:45.563Z,5.73
2018-10-21T10:58:15.538Z,4.93
2018-10-21T11:00:44.586Z,3.23
2018-10-21T11:03:13.596Z,4.30
2018-10-21T11:05:42.510Z,3.87
2018-10-21T11:08:11.493Z,3.47
2018-10-21T11:10:40.416Z,3.97
2018-10-21T11:13:09.454Z,3.80
2018-10-21T11:15:38.397Z,2.80
2018-10-21T11:18:07.306Z,3.17
2018-10-21T11:20:36.198Z,2.60
2018-10-21T11:23:05.113Z,2.93
2018-10-21T11:25:34.035Z,2.50
2018-10-21T11:28:03.167Z,2.80
2018-10-21T11:30:32.080Z,2.80
2018-10-21T11:33:00.928Z,3.10
2018-10-21T11:35:29.872Z,2.73
2018-10-21T11:37:58.773Z,2.40
2018-10-21T11:40:27.698Z,2.97
2018-10-21T11:42:56.563Z,2.23
2018-10-21T11:45:25.512Z,3.60
2018-10-21T11:47:54.845Z,3.57
2018-10-21T11:50:23.801Z,3.50
2018-10-21T11:52:52.696Z,4.37
2018-10-21T11:55:21.631Z,4.63
2018-10-21T11:57:50.571Z,4.57
2018-10-21T12:00:19.513Z,4.90
2018-10-21T12:02:48.601Z,3.77
2018-10-21T12:05:20.309Z,3.73
2018-10-21T12:07:49.205Z,4.53
2018-10-21T12:10:18.185Z,3.80
2018-10-21T12:12:47.132Z,3.77
2018-10-21T12:15:16.009Z,3.70
2018-10-21T12:17:46.555Z,3.10
2018-10-21T12:20:15.440Z,2.20
2018-10-21T12:22:44.395Z,3.47
2018-10-21T12:25:13.522Z,2.80
2018-10-21T12:27:42.393Z,5.00
2018-10-21T12:30:11.426Z,4.33
2018-10-21T12:32:40.431Z,5.00
2018-10-21T12:35:12.360Z,2.90
2018-10-21T12:37:41.683Z,3.30
2018-10-21T12:40:10.877Z,9.83
2018-10-21T12:42:40.304Z,8.50
2018-10-21T12:45:10.991Z,3.33
2018-10-21T12:47:40.061Z,2.40
2018-10-21T12:50:09.199Z,2.20
2018-10-21T12:52:39.031Z,2.63
2018-10-21T12:55:08.885Z,3.23
2018-10-21T12:57:37.895Z,3.63
2018-10-21T13:00:07.993Z,4.30
2018-10-21T13:02:37.087Z,4.17
2018-10-21T13:05:06.952Z,4.17
2018-10-21T13:07:35.904Z,3.43
2018-10-21T13:10:05.172Z,3.43
2018-10-21T13:12:34.080Z,4.53
2018-10-21T13:15:03.045Z,3.57
2018-10-21T13:17:32.048Z,4.10
2018-10-21T13:20:01.127Z,4.70
2018-10-21T13:22:30.286Z,3.40
2018-10-21T13:24:59.219Z,4.43
2018-10-21T13:27:28.206Z,3.40
2018-10-21T13:29:57.107Z,3.90
2018-10-21T13:32:26.049Z,6.10
2018-10-21T13:34:55.088Z,8.23
2018-10-21T13:37:23.971Z,8.23
2018-10-21T13:39:52.903Z,7.20
2018-10-21T13:42:21.913Z,7.17
2018-10-21T13:44:50.820Z,6.00
2018-10-21T13:47:19.763Z,4.00
2018-10-21T13:49:48.723Z,4.30
2018-10-21T13:52:17.831Z,4.90
2018-10-21T13:54:47.753Z,3.70
2018-10-21T13:57:17.352Z,4.00
2018-10-21T13:59:46.952Z,3.80
2018-10-21T14:02:15.907Z,4.63
2018-10-21T14:04:44.880Z,4.30
2018-10-21T14:07:13.956Z,4.03
2018-10-21T14:09:42.991Z,4.43
2018-10-21T14:12:18.364Z,4.63
2018-10-21T14:14:47.352Z,4.70
2018-10-21T14:17:16.244Z,4.57
2018-10-21T14:19:45.245Z,5.70
2018-10-21T14:22:14.423Z,5.07
2018-10-21T14:24:43.320Z,6.40
2018-10-21T14:27:12.276Z,10.40
2018-10-21T14:29:41.196Z,14.27
2018-10-21T14:32:10.109Z,15.40
2018-10-21T14:34:39.148Z,15.50
2018-10-21T14:37:08.077Z,14.13
2018-10-21T14:39:37.015Z,13.33
2018-10-21T14:42:07.977Z,11.80
2018-10-21T14:44:36.861Z,10.83
2018-10-21T14:47:05.913Z,8.97
2018-10-21T14:49:35.000Z,8.80
2018-10-21T14:52:03.887Z,7.53
2018-10-21T14:54:32.931Z,7.23
2018-10-21T14:57:01.875Z,8.20
2018-10-21T14:59:30.838Z,8.40
2018-10-21T15:01:59.999Z,8.67
2018-10-21T15:04:28.927Z,12.93
2018-10-21T15:06:57.840Z,19.20
2018-10-21T15:09:26.811Z,27.53
2018-10-21T15:11:55.770Z,22.07
2018-10-21T15:14:24.798Z,14.73
2018-10-21T15:16:53.903Z,11.43
2018-10-21T15:19:22.884Z,18.60
2018-10-21T15:21:51.817Z,22.10
2018-10-21T15:24:20.767Z,23.07
2018-10-21T15:26:49.713Z,20.37
2018-10-21T15:29:18.620Z,18.30
2018-10-21T15:31:49.517Z,21.57
2018-10-21T15:34:18.778Z,30.37
2018-10-21T15:36:47.991Z,28.27
2018-10-21T15:39:16.960Z,22.47
2018-10-21T15:41:46.015Z,18.73
2018-10-21T15:44:14.911Z,15.93
2018-10-21T15:46:43.800Z,14.77
2018-10-21T15:49:12.736Z,14.60
2018-10-21T15:51:42.785Z,19.27
2018-10-21T15:54:11.767Z,18.33
2018-10-21T15:56:40.795Z,25.53
2018-10-21T15:59:10.619Z,26.93
2018-10-21T16:01:39.547Z,29.03
2018-10-21T16:04:08.762Z,29.90
2018-10-21T16:06:38.701Z,29.07
2018-10-21T16:09:11.171Z,30.80
2018-10-21T16:11:41.561Z,31.40
2018-10-21T16:14:10.568Z,29.97
2018-10-21T16:16:40.318Z,31.27
2018-10-21T16:19:09.339Z,30.83
2018-10-21T16:21:38.264Z,31.87
2018-10-21T16:24:07.295Z,33.13
2018-10-21T16:26:36.274Z,33.13
2018-10-21T16:29:05.326Z,32.17
2018-10-21T16:31:35.097Z,32.67
2018-10-21T16:34:04.207Z,32.13
2018-10-21T16:36:33.167Z,30.97
2018-10-21T16:39:02.246Z,30.47
2018-10-21T16:41:34.231Z,31.80
2018-10-21T16:44:03.257Z,31.77
2018-10-21T16:46:33.115Z,33.47
2018-10-21T16:49:02.064Z,35.67
2018-10-21T16:51:31.605Z,37.93
2018-10-21T16:54:02.163Z,38.30
2018-10-21T16:56:31.204Z,38.17
2018-10-21T16:59:00.441Z,40.63
2018-10-21T17:01:29.404Z,42.63
2018-10-21T17:03:58.485Z,42.33
2018-10-21T17:06:27.617Z,47.40
2018-10-21T17:08:56.546Z,48.77
2018-10-21T17:11:25.489Z,46.40
2018-10-21T17:13:54.414Z,48.70
2018-10-21T17:16:23.372Z,46.00
2018-10-21T17:18:52.318Z,44.00
2018-10-21T17:21:21.275Z,40.77
2018-10-21T17:23:50.213Z,43.77
2018-10-21T17:26:19.140Z,44.70
2018-10-21T17:28:48.077Z,44.90
2018-10-21T17:31:17.123Z,46.73
2018-10-21T17:33:46.057Z,45.70
2018-10-21T17:36:14.978Z,46.83
2018-10-21T17:38:43.889Z,47.23
2018-10-21T17:41:12.875Z,46.33
2018-10-21T17:43:41.804Z,48.73
2018-10-21T17:46:10.827Z,55.03
2018-10-21T17:48:39.707Z,66.20
2018-10-21T17:51:08.577Z,70.33
2018-10-21T17:53:45.469Z,68.30
2018-10-21T17:56:14.375Z,62.87
2018-10-21T17:58:43.287Z,58.13
2018-10-21T18:01:13.333Z,60.97
2018-10-21T18:03:42.383Z,62.30
2018-10-21T18:06:11.327Z,63.57
2018-10-21T18:08:40.275Z,61.73
2018-10-21T18:11:09.266Z,68.17
2018-10-21T18:13:38.227Z,69.30
2018-10-21T18:16:07.152Z,67.37
2018-10-21T18:18:36.196Z,69.30
2018-10-21T18:21:11.683Z,70.83
2018-10-21T18:23:40.609Z,69.17
2018-10-21T18:26:09.594Z,99.73
2018-10-21T18:28:38.564Z,89.43
2018-10-21T18:31:07.567Z,83.03
2018-10-21T18:33:36.510Z,83.13
2018-10-21T18:36:06.132Z,81.03
2018-10-21T18:38:47.589Z,82.70
2018-10-21T18:41:16.907Z,83.87
2018-10-21T18:43:45.794Z,81.67
2018-10-21T18:46:14.845Z,81.33
2018-10-21T18:48:44.193Z,74.33
2018-10-21T18:51:13.084Z,74.00
2018-10-21T18:53:42.035Z,74.57
2018-10-21T18:56:11.038Z,75.13
2018-10-21T18:58:40.076Z,76.30
2018-10-21T19:01:09.149Z,77.83
2018-10-21T19:03:38.052Z,77.67
2018-10-21T19:06:07.004Z,76.40
2018-10-21T19:08:36.021Z,75.17
2018-10-21T19:11:05.076Z,76.97
2018-10-21T19:13:36.313Z,81.73
2018-10-21T19:16:07.905Z,78.90
2018-10-21T19:18:36.824Z,77.70
2018-10-21T19:21:05.896Z,78.10
2018-10-21T19:23:34.800Z,76.47
2018-10-21T19:26:03.708Z,82.63
2018-10-21T19:28:32.639Z,92.90
2018-10-21T19:31:01.676Z,88.93
2018-10-21T19:33:30.646Z,90.17
2018-10-21T19:35:59.630Z,90.17
2018-10-21T19:38:28.622Z,89.07
2018-10-21T19:40:57.535Z,93.33
2018-10-21T19:43:26.485Z,93.87
2018-10-21T19:45:55.576Z,99.20
2018-10-21T19:48:24.485Z,99.37
2018-10-21T19:50:53.411Z,99.97
2018-10-21T19:53:22.460Z,107.67
2018-10-21T19:55:51.360Z,104.93
2018-10-21T19:58:20.382Z,104.27
2018-10-21T20:00:49.401Z,102.90
2018-10-21T20:03:18.328Z,107.30
2018-10-21T20:05:47.302Z,108.00
2018-10-21T20:08:16.397Z,109.43
2018-10-21T20:10:45.316Z,115.27
2018-10-21T20:13:14.293Z,115.87
2018-10-21T20:15:43.315Z,114.70
2018-10-21T20:18:12.281Z,118.37
2018-10-21T20:20:41.208Z,116.37
2018-10-21T20:23:10.218Z,115.90
2018-10-21T20:25:39.117Z,115.50
2018-10-21T20:28:08.156Z,116.57
2018-10-21T20:30:37.121Z,114.43
2018-10-21T20:33:06.163Z,112.53
2018-10-21T20:35:35.076Z,114.37
2018-10-21T20:38:04.012Z,115.63
2018-10-21T20:40:34.120Z,112.30
2018-10-21T20:43:03.073Z,115.27
2018-10-21T20:45:31.972Z,118.57
2018-10-21T20:48:01.065Z,117.93
2018-10-21T20:50:30.008Z,116.57
2018-10-21T20:52:58.907Z,113.03
2018-10-21T20:55:27.901Z,109.77
2018-10-21T20:57:56.851Z,108.20
2018-10-21T21:00:25.774Z,107.73
2018-10-21T21:02:54.776Z,113.67
2018-10-21T21:05:23.652Z,113.97
2018-10-21T21:07:52.563Z,112.33
2018-10-21T21:10:21.513Z,110.63
2018-10-21T21:12:50.405Z,110.20
2018-10-21T21:15:19.348Z,112.13
2018-10-21T21:17:48.243Z,109.30
2018-10-21T21:20:17.178Z,107.47
2018-10-21T21:22:46.107Z,108.77
2018-10-21T21:25:15.035Z,110.47
2018-10-21T21:27:44.041Z,106.67
2018-10-21T21:30:13.011Z,103.60
2018-10-21T21:32:41.860Z,102.23
2018-10-21T21:35:10.760Z,98.67
2018-10-21T21:37:40.163Z,95.37
2018-10-21T21:40:10.162Z,93.10
2018-10-21T21:42:39.792Z,94.00
2018-10-21T21:45:09.399Z,90.00
2018-10-21T21:47:38.420Z,94.13
2018-10-21T21:50:08.015Z,96.20
2018-10-21T21:52:36.997Z,92.33
2018-10-21T21:55:06.522Z,92.77
2018-10-21T21:57:35.452Z,92.83
2018-10-21T22:00:05.036Z,88.07
2018-10-21T22:02:34.195Z,85.13
2018-10-21T22:05:03.182Z,85.27
2018-10-21T22:07:32.151Z,84.00
2018-10-21T22:10:01.115Z,79.90
2018-10-21T22:12:30.025Z,80.30
2018-10-21T22:14:58.899Z,81.20
2018-10-21T22:17:27.829Z,79.03
2018-10-21T22:19:56.752Z,79.10
2018-10-21T22:22:25.635Z,78.73
2018-10-21T22:24:54.551Z,78.40
2018-10-21T22:27:23.498Z,78.10
2018-10-21T22:29:52.406Z,83.07
2018-10-21T22:32:21.316Z,82.50
2018-10-21T22:34:50.203Z,82.43
2018-10-21T22:37:19.068Z,76.57
2018-10-21T22:39:48.300Z,78.17
2018-10-21T22:42:17.273Z,77.97
2018-10-21T22:44:46.127Z,75.20
2018-10-21T22:47:15.024Z,75.57
2018-10-21T22:49:43.887Z,74.10
2018-10-21T22:52:12.897Z,72.77
2018-10-21T22:54:41.749Z,73.47
2018-10-21T22:57:18.734Z,75.03
2018-10-21T22:59:49.123Z,70.37
2018-10-21T23:02:18.019Z,67.33
2018-10-21T23:04:47.348Z,64.77
2018-10-21T23:07:16.224Z,61.00
2018-10-21T23:09:45.132Z,59.13
2018-10-21T23:12:14.134Z,53.67
2018-10-21T23:14:43.027Z,50.70
2018-10-21T23:17:11.995Z,52.60
2018-10-21T23:19:43.835Z,49.13
2018-10-21T23:22:12.837Z,45.33
2018-10-21T23:24:42.167Z,47.57
2018-10-21T23:27:11.874Z,45.20
2018-10-21T23:29:41.387Z,45.83
2018-10-21T23:32:10.252Z,45.37
2018-10-21T23:34:39.195Z,43.53
2018-10-21T23:37:08.075Z,44.03
2018-10-21T23:39:36.926Z,43.87
2018-10-21T23:42:06.196Z,43.00
2018-10-21T23:44:35.112Z,42.80
2018-10-21T23:47:03.997Z,41.33
2018-10-21T23:49:32.888Z,43.27
2018-10-21T23:52:01.847Z,41.60
2018-10-21T23:54:30.732Z,42.27
2018-10-21T23:56:59.610Z,42.37
2018-10-21T23:59:28.511Z,41.67
